KDMA

UTC

Davis Monthan Air Force Base

Tucson, Arizona, United States

TAF Report

TAF KDMA 282204Z 2822/3004 21012G20KT 9999 SCT180 510008 QNH2980INS BECMG 2902/2903 VRB06KT 9999 SCT180 QNH2984INS BECMG 2906/2907 14007KT 9999 SKC QNH2985INS BECMG 2915/2916 VRB06KT 9999 SKC QNH2984INS BECMG 2919/2920 22015G24KT 9999 SKC 510006 QNH2978INS BECMG 3002/3003 VRB06KT 9999 SKC QNH2981INS TX38/2822Z TN19/2912Z

Issued

Sep 28 22:04 UTC

Valid From

Sep 28 22:00 UTC

Valid To

Sep 30 04:00 UTC

TAF Sections

  1. Sep 28 22:00 UTC - Sep 29 02:00 UTC

    TAF KDMA 282204Z 2822/3004 21012G20KT 9999 SCT180 510008 QNH2980INS

    Wind

    210° at 12 KTS
    Gusting to 20 KTS

    Visibility

    Greater than 6 SM

    Clouds

    • Scattered at 18,000 ft AGL

    Turbulence

    Altimeter

    29.79 Hg

    Pressure

    1009.0 hPa

  2. Sep 29 02:00 UTC - Sep 29 06:00 UTC

    BECMG 2902/2903 VRB06KT 9999 SCT180 QNH2984INS

    Wind

    Variable at 6 KTS

    Visibility

    Greater than 6 SM

    Clouds

    • Scattered at 18,000 ft AGL

    Altimeter

    29.85 Hg

    Pressure

    1011.0 hPa

  3. Sep 29 06:00 UTC - Sep 29 15:00 UTC

    BECMG 2906/2907 14007KT 9999 SKC QNH2985INS

    Wind

    140° at 7 KTS

    Visibility

    Greater than 6 SM

    Clouds

    • Clear skies

    Altimeter

    29.85 Hg

    Pressure

    1011.0 hPa

  4. Sep 29 15:00 UTC - Sep 29 19:00 UTC

    BECMG 2915/2916 VRB06KT 9999 SKC QNH2984INS

    Wind

    Variable at 6 KTS

    Visibility

    Greater than 6 SM

    Clouds

    • Clear skies

    Altimeter

    29.85 Hg

    Pressure

    1011.0 hPa

  5. Sep 29 19:00 UTC - Sep 30 02:00 UTC

    BECMG 2919/2920 22015G24KT 9999 SKC 510006 QNH2978INS

    Wind

    220° at 15 KTS
    Gusting to 24 KTS

    Visibility

    Greater than 6 SM

    Clouds

    • Clear skies

    Turbulence

    Altimeter

    29.79 Hg

    Pressure

    1009.0 hPa

  6. Sep 30 02:00 UTC - Sep 30 04:00 UTC

    BECMG 3002/3003 VRB06KT 9999 SKC QNH2981INS TX38/2822Z TN19/2912Z

    Wind

    Variable at 6 KTS

    Visibility

    Greater than 6 SM

    Clouds

    • Clear skies

    Altimeter

    29.82 Hg

    Pressure

    1010.0 hPa